Aeroporto :
LOGIN :

Iscrizione | Disclaimer

   EN    FR    IT 

 










Sommario :    VFR   VFR Marginale   IFR   IFR Intensivo   IFR Molto Intensivo
Visibilità : 
Base nubi : 
>= 8 km
>= 3000ft
5 / 8 km
1000 / 3000 ft
1500m / 5 km
500 / 1000 ft
800 / 1500m
200 / 500 ft
< 800m
< 200 ft
Simboli :   Temporali  Nebbia  Neve Forte  Precipitazioni Forti  Vento > 20 kt
SIGMETs :   Varie  Temporali  Ghiacco  Turbolenza  Onda orograficha  Ceneri Vulcaniche






- Altitudine del aeroporto : 433 ft
- Codice IATA : CCF


LFMK - Carcassonne

ULTIMO METAR :
  • 081130Z AUTO 07015KT 050V110 9999 FEW070 18/10 Q1024

METARs OBSOLETI :
  • 081100Z AUTO 08015KT 060V120 CAVOK 17/09 Q1025
  • 081030Z AUTO 08015KT CAVOK 17/10 Q1025
  • 081000Z AUTO 08014KT CAVOK 16/10 Q1025
  • 080930Z AUTO 09013KT 070V140 9999 SCT023 16/09 Q1025
  • 080900Z AUTO 08013KT 060V130 9999 BKN023 15/08 Q1025

TAF TAF LFMK
Valido dal 07 a 15 ore il 08 a 15 ore UTC


071400Z 0715/0815 08015G25KT CAVOK
BECMG 0716/0718 09010KT
TEMPO 0810/0815 09015G25KT



MetMap, La meteo Aeronautica in un colpo d'occhio ! - Copyright ORBIFLY Dicembre 2007 - Disclaimer

ORBIFLY MET'MAP TEAM :

Programmazione e sviluppo : Alexandra Zaïnal
Concezione : Baudouin d'Aumeries
Aiuto per la programmazione : Marc-Olivier Méhu
Supporto tecnico e logistico : Manuel Goepfert
Aiuto per la traduzione : Arnaldo La Scala

Contatto : metmap@orbifly.com




FONTI E CREDITI :

   NOAA